ADDS METAR Data INFO
IDs: Format: Raw Decoded Include TAF

Data at: 0935 UTC 25 Jun 2018

KBML 250918Z AUTO 35004KT 10SM -RA SCT012 BKN035 OVC042 14/13 A2986 RMK AO2 P0001 T01440133
KBML 250852Z AUTO 32007KT 3SM -RA BR BKN012 OVC018 14/13 A2985 RMK AO2 RAB22 SLP108 P0003 60003 T01440133 53005
KBML 250841Z AUTO 32005KT 2 1/2SM -RA BR BKN014 OVC019 14/14 A2985 RMK AO2 RAB22 P0002 T01440139
KBML 250831Z AUTO 33005KT 4SM -RA BR BKN014 OVC019 15/14 A2985 RMK AO2 RAB22 P0001 T01500144
KBML 250752Z AUTO 00000KT 10SM FEW019 OVC029 15/15 A2984 RMK AO2 RAE10 SLP104 P0000 T01500150
KBML 250734Z AUTO 00000KT 4SM BR FEW001 BKN029 OVC050 16/16 A2985 RMK AO2 RAE10 P0000 T01560156
KBML 250724Z AUTO 00000KT 5SM BR FEW001 BKN030 OVC055 16/16 A2984 RMK AO2 RAE10 P0000 T01560156
KBML 250717Z AUTO 00000KT 6SM BR FEW002 BKN024 OVC080 16/16 A2984 RMK AO2 RAE10 P0000 T01560156
KBML 250710Z AUTO 00000KT 2 1/2SM BR SCT002 BKN022 OVC080 16/16 A2984 RMK AO2 RAE10 P0000 T01560156
KBML 250706Z AUTO 00000KT 1SM -RA BR SCT002 BKN022 OVC075 16/16 A2984 RMK AO2 P0000 T01560156
KBML 250652Z AUTO 00000KT 1/2SM -RA FG OVC002 15/15 A2984 RMK AO2 RAB33 SLP102 P0000 T01500150
KBML 250627Z AUTO 00000KT 3/4SM BR OVC003 16/16 A2984 RMK AO2 T01560156
KBML 250615Z AUTO 00000KT 1SM BR OVC003 16/16 A2984 RMK AO2 T01560156
KBML 250602Z AUTO 00000KT 1/4SM FG VV002 16/16 A2984 RMK AO2 T01560156
KBML 250552Z AUTO 00000KT 1SM BR VV003 16/16 A2984 RMK AO2 SLP103 60005 T01560156 10172 20156 58009
KBML 250528Z AUTO 00000KT 1/2SM FG VV002 16/16 A2984 RMK AO2 T01560156
KBML 250508Z AUTO 00000KT 1/4SM FG VV002 16/16 A2985 RMK AO2 T01560156
KBML 250452Z AUTO 00000KT 1/2SM FG OVC002 16/16 A2985 RMK AO2 RAE12 SLP107 P0000 T01560156 402170122
KBML 250445Z AUTO 00000KT 3/4SM BR OVC002 16/16 A2985 RMK AO2 RAE12 P0000 T01560156
KBML 250441Z AUTO 00000KT 1 1/2SM BR OVC002 16/16 A2985 RMK AO2 RAE12 P0000 T01560156
KBML 250352Z AUTO 00000KT 7SM -RA BKN003 OVC090 16/16 A2986 RMK AO2 SLP112 P0001 T01560156
KBML 250314Z AUTO 00000KT 7SM -RA BKN002 OVC080 16/16 A2986 RMK AO2 P0000 T01560156
KBML 250305Z AUTO 00000KT 7SM -RA SCT003 OVC075 16/16 A2987 RMK AO2 P0000 T01610156
KBML 250252Z AUTO 00000KT 6SM -RA BR OVC080 16/16 A2987 RMK AO2 SLP114 P0002 60004 T01560156 53002
KBML 250152Z AUTO 00000KT 8SM -RA OVC070 16/16 A2987 RMK AO2 RAE14B35 SLP115 P0001 T01610156
KBML 250052Z AUTO 00000KT 7SM -RA OVC055 17/16 A2986 RMK AO2 RAE07B41 SLP110 P0001 T01670161
KBML 242352Z AUTO 00000KT 5SM -RA BR OVC040 17/16 A2986 RMK AO2 SLP112 P0001 60002 T01720161 10217 20172 53012
KBML 242252Z AUTO 00000KT 7SM -RA SCT030 BKN037 OVC044 18/16 A2984 RMK AO2 RAB08 SLP106 P0001 T01780161
KBML 242152Z AUTO 00000KT 10SM SCT027 OVC055 21/14 A2983 RMK AO2 SLP101 T02060144
KBML 242052Z AUTO 00000KT 10SM FEW025 FEW048 OVC070 21/14 A2983 RMK AO2 SLP099 T02110144 55000
KBML 241952Z AUTO VRB03KT 10SM OVC060 21/14 A2982 RMK AO2 SLP099 T02110144
KBML 241852Z AUTO 20003KT 10SM FEW022 SCT037 OVC060 19/14 A2983 RMK AO2 SLP100 T01940144
KBML 241850Z AUTO 21005KT 10SM SCT022 SCT037 OVC060 19/15 A2983 RMK AO2
KBML 241752Z AUTO 00000KT 10SM FEW019 OVC026 19/14 A2982 RMK AO2 SLP099 T01890144 10189 20139 56004
KBML 241736Z AUTO 00000KT 10SM OVC028 19/14 A2982 RMK AO2 T01890144
KBML 241711Z AUTO 00000KT 10SM FEW022 BKN030 OVC040 18/14 A2983 RMK AO2 T01830144
KBML 241652Z AUTO 00000KT 10SM BKN023 OVC028 18/14 A2983 RMK AO2 SLP101 T01830144
KBML 241625Z AUTO 00000KT 10SM FEW019 BKN025 OVC038 18/14 A2983 RMK AO2 T01830139
KBML 241552Z AUTO 00000KT 10SM SCT029 BKN035 OVC046 18/14 A2983 RMK AO2 SLP100 T01780144
KBML 241534Z AUTO 36005KT 10SM SCT015 SCT026 OVC036 18/14 A2983 RMK AO2 T01780144
KBML 241452Z AUTO 00000KT 10SM OVC016 16/14 A2984 RMK AO2 SLP104 T01610139 51013
KBML 241406Z AUTO 00000KT 10SM OVC015 16/13 A2983 RMK AO2 T01610133
KBML 241352Z AUTO VRB04KT 10SM OVC013 16/13 A2983 RMK AO2 SLP101 T01610133
KBML 241319Z AUTO 19004KT 10SM BKN011 OVC026 16/14 A2982 RMK AO2 T01560139
KBML 241252Z AUTO 00000KT 10SM OVC008 16/13 A2981 RMK AO2 CIG 007V010 SLP096 T01560133
KBML 241232Z AUTO 00000KT 10SM BKN008 BKN018 OVC026 15/13 A2981 RMK AO2 T01500133
KBML 241225Z AUTO 00000KT 10SM SCT008 BKN018 OVC027 15/13 A2980 RMK AO2 T01500133
KBML 241152Z AUTO 00000KT 10SM BKN006 OVC010 14/13 A2980 RMK AO2 SLP092 70014 T01390128 10139 20122 50003
KBML 241145Z AUTO 00000KT 10SM BKN006 OVC012 14/13 A2980 RMK AO2 CIG 005V010 T01390128
KBML 241136Z AUTO 00000KT 10SM FEW005 BKN010 OVC026 14/13 A2980 RMK AO2 CIG 008V012 T01390128
KBML 241052Z AUTO 00000KT 10SM OVC006 13/13 A2980 RMK AO2 CIG 005V012 SLP093 T01330128
KBML 240952Z AUTO 00000KT 10SM OVC005 13/12 A2980 RMK AO2 SLP092 T01280122
KBML 240907Z AUTO 00000KT 9SM OVC003 12/12 A2978 RMK AO2 T01220122
KBML 240852Z AUTO 00000KT 10SM OVC006 12/12 A2979 RMK AO2 CIG 002V006 SLP088 T01220117 58002
KBML 240752Z AUTO 00000KT 4SM BR OVC005 12/12 A2979 RMK AO2 CIG 002V008 SLP087 T01220117
KBML 240652Z AUTO 00000KT 8SM BKN005 OVC009 12/12 A2980 RMK AO2 SLP090 T01220117
KBML 240633Z AUTO 21003KT 10SM BKN005 OVC011 12/12 A2980 RMK AO2 T01220117
KBML 240616Z AUTO 00000KT 10SM FEW007 OVC012 12/12 A2979 RMK AO2 T01220117
KBML 240552Z AUTO 00000KT 10SM OVC014 12/12 A2979 RMK AO2 SLP089 60002 T01220117 10133 20122 58016
KBML 240527Z AUTO 00000KT 10SM OVC015 12/12 A2981 RMK AO2 T01220117
KBML 240452Z AUTO 15003KT 9SM OVC011 12/12 A2982 RMK AO2 SLP098 T01220117 401940078
KBML 240417Z AUTO 00000KT 10SM OVC014 13/12 A2983 RMK AO2 T01280117
KBML 240352Z AUTO 00000KT 10SM OVC015 13/12 A2983 RMK AO2 SLP102 T01280117
KBML 240259Z AUTO 00000KT 10SM SCT004 OVC017 13/12 A2984 RMK AO2 T01280122
KBML 240252Z AUTO 00000KT 10SM BKN004 OVC019 13/12 A2984 RMK AO2 SLP107 60002 T01280122 55003
KBML 240236Z AUTO 00000KT 10SM BKN004 BKN011 OVC017 13/12 A2984 RMK AO2 T01280122
KBML 240152Z AUTO 00000KT 10SM FEW005 BKN010 OVC021 13/12 A2984 RMK AO2 RAE14 SLP106 P0002 T01280122
KBML 240144Z AUTO 00000KT 10SM FEW005 BKN010 OVC021 13/12 A2984 RMK AO2 RAE14 P0002 T01280122
KBML 240052Z AUTO 00000KT 10SM -RA OVC023 13/12 A2985 RMK AO2 RAE2356B52 SLP109 P0000 T01280122
KBML 240014Z AUTO 00000KT 10SM BKN024 OVC038 13/12 A2985 RMK AO2 RAE2356 P0000 T01280117
KBML 232352Z AUTO 00000KT 9SM -RA FEW026 BKN039 OVC100 13/12 A2985 RMK AO2 SLP110 P0002 60011 T01280117 10194 20128 56012
KBML 232252Z AUTO 00000KT 7SM -RA BKN031 BKN080 OVC120 13/12 A2986 RMK AO2 SLP115 P0007 T01280117
KBML 232152Z AUTO 14005KT 6SM -RA SCT047 OVC055 13/11 A2988 RMK AO2 SLP121 P0002 T01330106